createdAt,value
2019-03-08T00:00:43.399Z,9.13
2019-03-08T00:01:43.511Z,9.35
2019-03-08T00:02:43.602Z,9.30
2019-03-08T00:03:43.704Z,9.38
2019-03-08T00:04:43.799Z,9.42
2019-03-08T00:05:43.884Z,9.34
2019-03-08T00:06:43.972Z,9.21
2019-03-08T00:07:44.061Z,9.28
2019-03-08T00:08:44.147Z,9.20
2019-03-08T00:09:44.234Z,9.23
2019-03-08T00:10:44.326Z,9.21
2019-03-08T00:11:44.424Z,9.18
2019-03-08T00:12:44.514Z,9.35
2019-03-08T00:13:44.602Z,9.34
2019-03-08T00:14:44.679Z,9.39
2019-03-08T00:15:44.785Z,9.32
2019-03-08T00:16:44.875Z,9.42
2019-03-08T00:17:44.965Z,9.34
2019-03-08T00:18:45.058Z,9.42
2019-03-08T00:19:45.142Z,9.39
2019-03-08T00:20:45.251Z,9.40
2019-03-08T00:21:45.355Z,9.32
2019-03-08T00:22:45.425Z,9.30
2019-03-08T00:23:45.513Z,9.39
2019-03-08T00:24:45.603Z,9.39
2019-03-08T00:25:45.705Z,9.38
2019-03-08T00:26:45.813Z,9.42
2019-03-08T00:27:45.902Z,9.49
2019-03-08T00:28:45.992Z,9.43
2019-03-08T00:29:46.082Z,9.48
2019-03-08T00:30:46.170Z,9.52
2019-03-08T00:31:46.261Z,9.57
2019-03-08T00:32:46.351Z,9.53
2019-03-08T00:33:46.439Z,9.56
2019-03-08T00:34:46.528Z,9.48
2019-03-08T00:35:46.618Z,9.48
2019-03-08T00:36:46.708Z,9.50
2019-03-08T00:37:46.794Z,9.49
2019-03-08T00:38:46.890Z,9.27
2019-03-08T00:39:46.981Z,9.42
2019-03-08T00:40:47.070Z,9.28
2019-03-08T00:41:47.160Z,9.38
2019-03-08T00:42:47.247Z,9.43
2019-03-08T00:43:47.336Z,9.46
2019-03-08T00:44:47.426Z,9.50
2019-03-08T00:45:47.519Z,9.56
2019-03-08T00:46:47.605Z,9.50
2019-03-08T00:47:47.693Z,9.39
2019-03-08T00:48:47.815Z,9.49
2019-03-08T00:49:47.866Z,9.43
2019-03-08T00:50:47.955Z,9.34
2019-03-08T00:51:48.044Z,9.49
2019-03-08T00:52:48.127Z,9.46
2019-03-08T00:53:48.215Z,9.42
2019-03-08T00:54:48.303Z,9.35
2019-03-08T00:55:48.393Z,9.39
2019-03-08T00:56:48.482Z,9.48
2019-03-08T00:57:48.574Z,9.46
2019-03-08T00:58:48.667Z,9.45
2019-03-08T00:59:48.755Z,9.57
2019-03-08T01:00:58.224Z,9.57
2019-03-08T01:01:48.994Z,9.56
2019-03-08T01:02:49.026Z,9.58
2019-03-08T01:03:49.111Z,9.57
2019-03-08T01:04:49.201Z,9.53
2019-03-08T01:05:49.289Z,9.58
2019-03-08T01:06:49.383Z,9.64
2019-03-08T01:07:49.472Z,9.60
2019-03-08T01:08:49.560Z,9.56
2019-03-08T01:09:49.649Z,9.49
2019-03-08T01:10:49.738Z,9.53
2019-03-08T01:11:49.830Z,9.53
2019-03-08T01:12:49.949Z,9.43
2019-03-08T01:13:50.007Z,9.53
2019-03-08T01:14:50.105Z,9.53
2019-03-08T01:15:50.194Z,9.58
2019-03-08T01:16:50.285Z,9.58
2019-03-08T01:17:50.378Z,9.61
2019-03-08T01:18:50.508Z,9.60
2019-03-08T01:19:50.554Z,9.61
2019-03-08T01:20:50.641Z,9.53
2019-03-08T01:21:50.732Z,9.35
2019-03-08T01:22:50.818Z,9.39
2019-03-08T01:23:50.908Z,9.35
2019-03-08T01:24:50.991Z,9.34
2019-03-08T01:25:51.080Z,9.25
2019-03-08T01:26:51.174Z,9.20
2019-03-08T01:27:51.266Z,9.38
2019-03-08T01:28:51.352Z,9.25
2019-03-08T01:29:51.444Z,9.18
2019-03-08T01:30:51.539Z,9.31
2019-03-08T01:31:53.380Z,9.27
2019-03-08T01:32:51.705Z,9.35
2019-03-08T01:33:51.793Z,9.42
2019-03-08T01:34:51.884Z,9.21
2019-03-08T01:35:51.974Z,9.28
2019-03-08T01:36:52.062Z,9.24
2019-03-08T01:37:52.153Z,9.24
2019-03-08T01:38:52.246Z,9.21
2019-03-08T01:39:52.335Z,9.18
2019-03-08T01:40:52.444Z,9.20
2019-03-08T01:41:52.518Z,9.09
2019-03-08T01:42:52.620Z,9.09
2019-03-08T01:43:52.707Z,9.12
2019-03-08T01:44:52.800Z,9.15
2019-03-08T01:45:52.889Z,9.25
2019-03-08T01:46:52.984Z,9.20
2019-03-08T01:47:53.074Z,9.23
2019-03-08T01:48:53.166Z,9.18
2019-03-08T01:49:53.253Z,9.24
2019-03-08T01:50:53.345Z,9.25
2019-03-08T01:51:53.437Z,9.21
2019-03-08T01:52:53.529Z,9.21
2019-03-08T01:53:53.621Z,9.27
2019-03-08T01:54:53.708Z,9.30
2019-03-08T01:55:53.799Z,9.27
2019-03-08T01:56:53.890Z,9.25
2019-03-08T01:57:53.981Z,9.16
2019-03-08T01:58:54.070Z,9.25
2019-03-08T01:59:54.162Z,9.21
2019-03-08T02:00:54.246Z,9.24
2019-03-08T02:01:54.335Z,9.13
2019-03-08T02:02:54.426Z,9.16
2019-03-08T02:03:54.521Z,9.12
2019-03-08T02:04:54.608Z,9.06
2019-03-08T02:05:54.697Z,8.90
2019-03-08T02:06:54.786Z,8.99
2019-03-08T02:07:54.878Z,8.94
2019-03-08T02:08:54.972Z,9.02
2019-03-08T02:09:55.061Z,8.91
2019-03-08T02:10:55.154Z,9.04
2019-03-08T02:11:55.242Z,8.97
2019-03-08T02:12:55.329Z,8.90
2019-03-08T02:13:55.421Z,8.91
2019-03-08T02:14:55.510Z,8.96
2019-03-08T02:15:55.611Z,8.88
2019-03-08T02:16:55.690Z,8.94
2019-03-08T02:17:55.778Z,8.90
2019-03-08T02:18:55.870Z,8.86
2019-03-08T02:19:55.960Z,8.88
2019-03-08T02:20:56.053Z,8.88
2019-03-08T02:21:56.145Z,8.97
2019-03-08T02:22:56.230Z,8.90
2019-03-08T02:23:56.321Z,8.81
2019-03-08T02:24:56.410Z,8.91
2019-03-08T02:25:56.503Z,8.91
2019-03-08T02:26:56.634Z,8.87
2019-03-08T02:27:56.701Z,8.97
2019-03-08T02:28:56.789Z,8.83
2019-03-08T02:29:56.878Z,8.78
2019-03-08T02:30:56.965Z,8.90
2019-03-08T02:31:57.056Z,8.90
2019-03-08T02:32:57.144Z,8.87
2019-03-08T02:33:57.236Z,8.91
2019-03-08T02:34:57.325Z,8.96
2019-03-08T02:35:57.415Z,8.97
2019-03-08T02:36:57.509Z,9.05
2019-03-08T02:37:57.600Z,9.04
2019-03-08T02:38:57.685Z,8.94
2019-03-08T02:39:57.773Z,8.86
2019-03-08T02:40:57.864Z,8.86
2019-03-08T02:41:57.958Z,8.79
2019-03-08T02:42:58.046Z,8.72
2019-03-08T02:43:58.134Z,8.79
2019-03-08T02:44:58.229Z,8.76
2019-03-08T02:45:58.315Z,8.75
2019-03-08T02:46:58.406Z,8.78
2019-03-08T02:47:58.488Z,8.83
2019-03-08T02:48:58.589Z,8.73
2019-03-08T02:49:58.670Z,8.87
2019-03-08T02:50:58.759Z,8.68
2019-03-08T02:51:58.851Z,8.81
2019-03-08T02:52:58.938Z,8.87
2019-03-08T02:53:59.035Z,8.86
2019-03-08T02:54:59.118Z,8.87
2019-03-08T02:55:59.207Z,8.91
2019-03-08T02:56:59.296Z,8.99
2019-03-08T02:57:59.394Z,9.02
2019-03-08T02:58:59.479Z,9.10
2019-03-08T02:59:59.565Z,9.04
2019-03-08T03:00:59.650Z,8.99
2019-03-08T03:01:59.747Z,9.05
2019-03-08T03:02:59.839Z,9.04
2019-03-08T03:03:59.927Z,9.02
2019-03-08T03:05:00.016Z,9.02
2019-03-08T03:06:00.105Z,9.06
2019-03-08T03:07:00.205Z,9.12
2019-03-08T03:08:00.280Z,9.12
2019-03-08T03:09:00.372Z,9.16
2019-03-08T03:10:00.536Z,9.20
2019-03-08T03:11:00.547Z,9.13
2019-03-08T03:12:00.659Z,9.25
2019-03-08T03:13:00.750Z,9.06
2019-03-08T03:14:00.837Z,9.09
2019-03-08T03:15:00.927Z,9.05
2019-03-08T03:16:01.017Z,9.20
2019-03-08T03:17:01.107Z,9.15
2019-03-08T03:18:01.195Z,9.04
2019-03-08T03:19:01.288Z,9.16
2019-03-08T03:20:01.375Z,9.20
2019-03-08T03:21:01.466Z,9.09
2019-03-08T03:22:01.555Z,9.06
2019-03-08T03:23:01.641Z,9.12
2019-03-08T03:24:01.734Z,9.25
2019-03-08T03:25:01.822Z,9.21
2019-03-08T03:26:01.909Z,9.20
2019-03-08T03:27:02.001Z,9.16
2019-03-08T03:28:02.088Z,9.32
2019-03-08T03:29:02.180Z,9.34
2019-03-08T03:30:02.267Z,9.32
2019-03-08T03:31:02.361Z,9.34
2019-03-08T03:32:02.451Z,9.34
2019-03-08T03:33:02.611Z,9.35
2019-03-08T03:34:02.630Z,9.40
2019-03-08T03:35:02.722Z,9.42
2019-03-08T03:36:02.812Z,9.40
2019-03-08T03:37:02.902Z,9.34
2019-03-08T03:38:02.999Z,9.35
2019-03-08T03:39:03.085Z,9.21
2019-03-08T03:40:03.184Z,9.18
2019-03-08T03:41:03.263Z,9.34
2019-03-08T03:42:03.358Z,9.24
2019-03-08T03:43:03.447Z,9.38
2019-03-08T03:44:03.541Z,9.27
2019-03-08T03:45:03.630Z,9.35
2019-03-08T03:46:03.720Z,9.39
2019-03-08T03:47:03.807Z,9.32
2019-03-08T03:48:03.905Z,9.27
2019-03-08T03:49:03.990Z,9.27
2019-03-08T03:50:04.083Z,9.39
2019-03-08T03:51:04.172Z,9.50
2019-03-08T03:52:04.270Z,9.43
2019-03-08T03:53:04.354Z,9.46
2019-03-08T03:54:04.444Z,9.43
2019-03-08T03:55:04.559Z,9.42
2019-03-08T03:56:04.630Z,9.35
2019-03-08T03:57:04.720Z,9.49
2019-03-08T03:58:04.809Z,9.38
2019-03-08T03:59:04.900Z,9.42
2019-03-08T04:00:04.988Z,9.45
2019-03-08T04:01:05.082Z,9.48
2019-03-08T04:02:05.171Z,9.49
2019-03-08T04:03:05.261Z,9.50
2019-03-08T04:04:05.363Z,9.52
2019-03-08T04:05:05.437Z,9.56
2019-03-08T04:06:05.531Z,9.63
2019-03-08T04:07:05.618Z,9.58
2019-03-08T04:08:05.708Z,9.60
2019-03-08T04:09:05.831Z,9.52
2019-03-08T04:10:05.885Z,9.38
2019-03-08T04:11:05.977Z,9.38
2019-03-08T04:12:06.070Z,9.25
2019-03-08T04:13:06.155Z,9.18
2019-03-08T04:14:06.247Z,9.27
2019-03-08T04:15:06.339Z,9.20
2019-03-08T04:16:06.430Z,9.25
2019-03-08T04:17:06.545Z,9.34
2019-03-08T04:18:06.626Z,9.39
2019-03-08T04:19:06.703Z,9.28
2019-03-08T04:20:06.795Z,9.34
2019-03-08T04:21:06.884Z,9.39
2019-03-08T04:22:06.978Z,9.34
2019-03-08T04:23:07.071Z,9.28
2019-03-08T04:24:07.158Z,9.38
2019-03-08T04:25:07.263Z,9.38
2019-03-08T04:26:07.339Z,9.27
2019-03-08T04:27:07.427Z,9.34
2019-03-08T04:28:07.525Z,9.39
2019-03-08T04:29:07.612Z,9.38
2019-03-08T04:30:07.698Z,9.35
2019-03-08T04:31:07.790Z,9.40
2019-03-08T04:32:07.881Z,9.32
2019-03-08T04:33:07.968Z,9.35
2019-03-08T04:34:08.062Z,9.35
2019-03-08T04:35:08.156Z,9.35
2019-03-08T04:36:08.245Z,9.38
2019-03-08T04:37:08.332Z,9.46
2019-03-08T04:38:08.427Z,9.28
2019-03-08T04:39:08.551Z,9.35
2019-03-08T04:40:08.605Z,9.25
2019-03-08T04:41:08.699Z,9.18
2019-03-08T04:42:08.789Z,9.25
2019-03-08T04:43:08.874Z,9.25
2019-03-08T04:44:08.961Z,9.34
2019-03-08T04:45:09.054Z,9.35
2019-03-08T04:46:09.144Z,9.43
2019-03-08T04:47:09.233Z,9.42
2019-03-08T04:48:09.323Z,9.35
2019-03-08T04:49:09.418Z,9.18
2019-03-08T04:50:09.505Z,9.27
2019-03-08T04:51:09.595Z,9.24
2019-03-08T04:52:09.683Z,9.39
2019-03-08T04:53:09.775Z,9.28
2019-03-08T04:54:09.864Z,9.38
2019-03-08T04:55:09.953Z,9.35
2019-03-08T04:56:10.044Z,9.42
2019-03-08T04:57:10.133Z,9.35
2019-03-08T04:58:10.225Z,9.42
2019-03-08T04:59:10.313Z,9.42
2019-03-08T05:00:10.405Z,9.35
2019-03-08T05:01:10.499Z,9.34
2019-03-08T05:02:10.608Z,9.35
2019-03-08T05:03:10.692Z,9.39
2019-03-08T05:04:10.949Z,9.40
2019-03-08T05:05:10.847Z,9.28
2019-03-08T05:06:10.947Z,9.21
2019-03-08T05:07:11.030Z,9.40
2019-03-08T05:08:11.116Z,9.34
2019-03-08T05:09:11.211Z,9.35
2019-03-08T05:10:11.301Z,9.27
2019-03-08T05:11:11.392Z,9.35
2019-03-08T05:12:11.479Z,9.16
2019-03-08T05:13:11.571Z,9.23
2019-03-08T05:14:11.668Z,9.30
2019-03-08T05:15:11.746Z,9.23
2019-03-08T05:16:11.843Z,9.16
2019-03-08T05:17:11.931Z,9.21
2019-03-08T05:18:12.022Z,9.25
2019-03-08T05:19:12.113Z,9.21
2019-03-08T05:20:12.207Z,9.38
2019-03-08T05:21:12.300Z,9.38
2019-03-08T05:22:12.383Z,9.30
2019-03-08T05:23:12.470Z,9.32
2019-03-08T05:24:12.561Z,9.23
2019-03-08T05:25:12.695Z,9.05
2019-03-08T05:26:12.742Z,9.05
2019-03-08T05:27:12.833Z,9.09
2019-03-08T05:28:12.926Z,9.12
2019-03-08T05:29:13.014Z,9.12
2019-03-08T05:30:13.113Z,9.24
2019-03-08T05:31:13.191Z,9.23
2019-03-08T05:32:13.284Z,9.38
2019-03-08T05:33:13.374Z,9.35
2019-03-08T05:34:13.463Z,9.28
2019-03-08T05:35:13.551Z,9.38
2019-03-08T05:36:13.915Z,9.32
2019-03-08T05:37:13.810Z,9.49
2019-03-08T05:38:13.858Z,9.46
2019-03-08T05:39:13.948Z,9.52
2019-03-08T05:40:14.059Z,9.50
2019-03-08T05:41:14.149Z,9.45
2019-03-08T05:42:14.243Z,9.48
2019-03-08T05:43:14.325Z,9.57
2019-03-08T05:44:14.421Z,9.50
2019-03-08T05:45:14.559Z,9.38
2019-03-08T05:46:14.661Z,9.39
2019-03-08T05:47:14.706Z,9.38
2019-03-08T05:48:14.921Z,9.42
2019-03-08T05:49:14.902Z,9.40
2019-03-08T05:50:14.983Z,9.46
2019-03-08T05:51:15.083Z,9.35
2019-03-08T05:52:15.180Z,9.40
2019-03-08T05:53:15.261Z,9.38
2019-03-08T05:54:15.354Z,9.46
2019-03-08T05:55:15.440Z,9.40
2019-03-08T05:56:15.533Z,9.45
2019-03-08T05:57:15.623Z,9.34
2019-03-08T05:58:15.715Z,9.32
2019-03-08T05:59:15.801Z,9.38
2019-03-08T06:00:15.894Z,9.40
2019-03-08T06:01:15.992Z,9.42
2019-03-08T06:02:16.081Z,9.45
2019-03-08T06:03:16.176Z,9.34
2019-03-08T06:04:16.262Z,9.32
2019-03-08T06:05:16.354Z,9.35
2019-03-08T06:06:16.444Z,9.52
2019-03-08T06:07:16.557Z,9.46
2019-03-08T06:08:16.647Z,9.58
2019-03-08T06:09:16.729Z,9.58
2019-03-08T06:10:16.782Z,9.60
2019-03-08T06:11:16.874Z,9.58
2019-03-08T06:12:16.957Z,9.53
2019-03-08T06:13:17.052Z,9.53
2019-03-08T06:14:17.138Z,9.49
2019-03-08T06:15:17.236Z,9.40
2019-03-08T06:16:17.327Z,9.38
2019-03-08T06:17:17.418Z,9.39
2019-03-08T06:18:17.509Z,9.40
2019-03-08T06:19:17.602Z,9.48
2019-03-08T06:20:17.693Z,9.48
2019-03-08T06:21:17.782Z,9.50
2019-03-08T06:22:17.878Z,9.46
2019-03-08T06:23:17.965Z,9.50
2019-03-08T06:24:18.055Z,9.32
2019-03-08T06:25:18.148Z,9.39
2019-03-08T06:26:18.239Z,9.39
2019-03-08T06:27:18.328Z,9.48
2019-03-08T06:28:18.418Z,9.52
2019-03-08T06:29:18.509Z,9.50
2019-03-08T06:30:18.633Z,9.49
2019-03-08T06:31:18.692Z,9.49
2019-03-08T06:32:18.800Z,9.38
2019-03-08T06:33:18.893Z,9.38
2019-03-08T06:34:18.998Z,9.40
2019-03-08T06:35:19.072Z,9.32
2019-03-08T06:36:19.162Z,9.34
2019-03-08T06:37:19.254Z,9.40
2019-03-08T06:38:19.344Z,9.48
2019-03-08T06:39:19.434Z,9.57
2019-03-08T06:40:19.525Z,9.57
2019-03-08T06:41:19.616Z,9.52
2019-03-08T06:42:19.706Z,9.57
2019-03-08T06:43:19.798Z,9.63
2019-03-08T06:44:19.891Z,9.46
2019-03-08T06:45:19.983Z,9.53
2019-03-08T06:46:20.074Z,9.56
2019-03-08T06:47:20.165Z,9.46
2019-03-08T06:48:20.259Z,9.48
2019-03-08T06:49:20.344Z,9.49
2019-03-08T06:50:20.437Z,9.58
2019-03-08T06:51:20.533Z,9.46
2019-03-08T06:52:20.638Z,9.57
2019-03-08T06:53:20.719Z,9.58
2019-03-08T06:54:20.782Z,9.73
2019-03-08T06:55:20.878Z,9.67
2019-03-08T06:56:20.965Z,9.63
2019-03-08T06:57:21.057Z,9.40
2019-03-08T06:58:21.150Z,9.49
2019-03-08T06:59:21.260Z,9.57
2019-03-08T07:00:21.326Z,9.61
2019-03-08T07:01:28.579Z,9.66
2019-03-08T07:02:21.552Z,9.60
2019-03-08T07:03:21.635Z,9.58
2019-03-08T07:04:21.727Z,9.60
2019-03-08T07:05:21.818Z,9.50
2019-03-08T07:06:21.909Z,9.61
2019-03-08T07:07:21.999Z,9.45
2019-03-08T07:08:22.094Z,9.61
2019-03-08T07:09:22.180Z,9.46
2019-03-08T07:10:22.271Z,9.56
2019-03-08T07:11:22.362Z,9.66
2019-03-08T07:12:22.445Z,9.64
2019-03-08T07:13:22.535Z,9.70
2019-03-08T07:14:22.624Z,9.56
2019-03-08T07:15:22.777Z,9.63
2019-03-08T07:16:22.808Z,9.58
2019-03-08T07:17:22.918Z,9.66
2019-03-08T07:18:23.009Z,9.64
2019-03-08T07:19:23.107Z,9.81
2019-03-08T07:20:23.190Z,9.86
2019-03-08T07:21:23.281Z,9.70
2019-03-08T07:22:23.373Z,9.85
2019-03-08T07:23:27.808Z,9.75
2019-03-08T07:24:23.554Z,9.66
2019-03-08T07:25:23.644Z,9.70
2019-03-08T07:26:23.736Z,9.75
2019-03-08T07:27:23.827Z,9.66
2019-03-08T07:28:23.922Z,9.71
2019-03-08T07:29:24.008Z,9.70
2019-03-08T07:30:24.099Z,9.71
2019-03-08T07:31:24.189Z,9.71
2019-03-08T07:32:24.279Z,9.75
2019-03-08T07:33:24.368Z,9.76
2019-03-08T07:34:24.462Z,9.57
2019-03-08T07:35:24.591Z,9.64
2019-03-08T07:36:24.877Z,9.53
2019-03-08T07:37:24.740Z,9.63
2019-03-08T07:38:24.820Z,9.68
2019-03-08T07:39:24.918Z,9.67
2019-03-08T07:40:25.009Z,9.64
2019-03-08T07:41:25.098Z,9.75
2019-03-08T07:42:25.192Z,9.71
2019-03-08T07:43:25.284Z,9.57
2019-03-08T07:44:25.373Z,9.63
2019-03-08T07:45:25.463Z,9.50
2019-03-08T07:46:25.551Z,9.56
2019-03-08T07:47:25.644Z,9.38
2019-03-08T07:48:25.741Z,9.43
2019-03-08T07:49:25.833Z,9.43
2019-03-08T07:50:25.920Z,9.46
2019-03-08T07:51:26.009Z,9.48
2019-03-08T07:52:26.101Z,9.57
2019-03-08T07:53:26.191Z,9.45
2019-03-08T07:54:26.284Z,9.50
2019-03-08T07:55:26.373Z,9.46
2019-03-08T07:56:26.467Z,9.48
2019-03-08T07:57:26.622Z,9.46
2019-03-08T07:58:26.734Z,9.52
2019-03-08T07:59:26.768Z,9.42
2019-03-08T08:00:26.849Z,9.49
2019-03-08T08:01:26.933Z,9.45
2019-03-08T08:02:27.026Z,9.48
2019-03-08T08:03:27.115Z,9.45
2019-03-08T08:04:27.206Z,9.45
2019-03-08T08:05:27.297Z,9.39
2019-03-08T08:06:27.390Z,9.38
2019-03-08T08:07:27.481Z,9.42
2019-03-08T08:08:27.572Z,9.45
2019-03-08T08:09:27.662Z,9.48
2019-03-08T08:10:27.751Z,9.42
2019-03-08T08:11:27.844Z,9.34
2019-03-08T08:12:27.933Z,9.23
2019-03-08T08:13:28.026Z,9.28
2019-03-08T08:14:28.114Z,9.31
2019-03-08T08:15:28.206Z,9.34
2019-03-08T08:16:28.296Z,9.25
2019-03-08T08:17:28.387Z,9.02
2019-03-08T08:18:28.478Z,9.24
2019-03-08T08:19:28.602Z,9.18
2019-03-08T08:20:28.932Z,9.34
2019-03-08T08:21:28.812Z,9.39
2019-03-08T08:22:28.845Z,9.21
2019-03-08T08:23:34.293Z,9.28
2019-03-08T08:24:29.033Z,9.38
2019-03-08T08:25:36.569Z,9.32
2019-03-08T08:26:29.211Z,9.38
2019-03-08T08:27:29.304Z,9.39
2019-03-08T08:28:29.391Z,9.39
2019-03-08T08:29:35.013Z,9.40
2019-03-08T08:30:29.575Z,9.35
2019-03-08T08:31:29.665Z,9.34
2019-03-08T08:32:29.758Z,9.39
2019-03-08T08:33:29.849Z,9.32
2019-03-08T08:34:29.929Z,9.27
2019-03-08T08:35:30.036Z,9.28
2019-03-08T08:36:30.124Z,9.21
2019-03-08T08:37:30.217Z,9.35
2019-03-08T08:38:30.308Z,9.35
2019-03-08T08:39:30.398Z,9.38
2019-03-08T08:40:30.505Z,9.38
2019-03-08T08:41:30.613Z,9.42
2019-03-08T08:42:30.791Z,9.40
2019-03-08T08:43:30.827Z,9.39
2019-03-08T08:44:30.887Z,9.39
2019-03-08T08:45:30.979Z,9.34
2019-03-08T08:46:31.067Z,9.38
2019-03-08T08:47:31.153Z,9.46
2019-03-08T08:48:31.239Z,9.52
2019-03-08T08:49:31.330Z,9.49
2019-03-08T08:50:31.423Z,9.46
2019-03-08T08:51:31.515Z,9.45
2019-03-08T08:52:31.604Z,9.52
2019-03-08T08:53:31.694Z,9.10
2019-03-08T08:54:31.785Z,9.23
2019-03-08T08:55:31.877Z,9.32
2019-03-08T08:56:31.969Z,9.42
2019-03-08T08:57:32.061Z,9.50
2019-03-08T08:58:32.150Z,9.60
2019-03-08T08:59:32.243Z,9.31
2019-03-08T09:00:32.334Z,9.25
2019-03-08T09:01:32.423Z,9.34
2019-03-08T09:02:32.547Z,9.45
2019-03-08T09:03:32.616Z,9.46
2019-03-08T09:04:32.810Z,9.56
2019-03-08T09:05:32.837Z,9.61
2019-03-08T09:06:32.881Z,9.63
2019-03-08T09:07:32.964Z,9.46
2019-03-08T09:08:33.054Z,9.57
2019-03-08T09:09:33.146Z,9.60
2019-03-08T09:10:33.241Z,9.61
2019-03-08T09:11:33.329Z,9.63
2019-03-08T09:12:33.419Z,9.64
2019-03-08T09:13:33.514Z,9.61
2019-03-08T09:14:33.630Z,9.57
2019-03-08T09:15:33.693Z,9.78
2019-03-08T09:16:33.784Z,9.68
2019-03-08T09:17:33.877Z,9.75
2019-03-08T09:18:33.977Z,9.85
2019-03-08T09:19:34.070Z,9.97
2019-03-08T09:20:34.161Z,9.96
2019-03-08T09:21:34.255Z,9.94
2019-03-08T09:22:34.347Z,10.00
2019-03-08T09:23:34.435Z,9.96
2019-03-08T09:24:34.526Z,10.07
2019-03-08T09:25:34.751Z,10.03
2019-03-08T09:26:34.710Z,10.09
2019-03-08T09:27:34.759Z,10.10
2019-03-08T09:28:34.844Z,10.19
2019-03-08T09:29:41.333Z,10.12
2019-03-08T09:30:35.028Z,10.19
2019-03-08T09:31:35.119Z,10.37
2019-03-08T09:32:35.209Z,10.40
2019-03-08T09:33:35.303Z,10.44
2019-03-08T09:34:35.392Z,10.47
2019-03-08T09:35:35.484Z,10.52
2019-03-08T09:36:35.574Z,10.47
2019-03-08T09:37:35.669Z,10.33
2019-03-08T09:38:35.757Z,10.39
2019-03-08T09:39:35.851Z,10.24
2019-03-08T09:40:35.943Z,10.09
2019-03-08T09:41:36.032Z,10.01
2019-03-08T09:42:36.112Z,10.01
2019-03-08T09:43:36.222Z,10.06
2019-03-08T09:44:36.315Z,10.07
2019-03-08T09:45:36.408Z,10.18
2019-03-08T09:46:36.494Z,10.19
2019-03-08T09:47:36.578Z,10.28
2019-03-08T09:48:36.769Z,10.14
2019-03-08T09:49:36.885Z,10.14
2019-03-08T09:50:36.891Z,10.17
2019-03-08T09:51:36.939Z,10.24
2019-03-08T09:52:37.032Z,10.24
2019-03-08T09:53:37.125Z,10.26
2019-03-08T09:54:37.215Z,10.30
2019-03-08T09:55:37.305Z,10.19
2019-03-08T09:56:37.397Z,10.36
2019-03-08T09:57:37.486Z,10.47
2019-03-08T09:58:37.602Z,10.43
2019-03-08T09:59:37.715Z,10.40
2019-03-08T10:00:37.825Z,10.40
2019-03-08T10:01:37.913Z,10.39
2019-03-08T10:02:38.005Z,10.37
2019-03-08T10:03:38.092Z,10.28
2019-03-08T10:04:38.183Z,10.07
2019-03-08T10:05:38.274Z,10.25
2019-03-08T10:06:38.821Z,10.36
2019-03-08T10:07:38.457Z,10.39
2019-03-08T10:08:38.549Z,10.51
2019-03-08T10:09:38.790Z,10.59
2019-03-08T10:10:38.773Z,10.68
2019-03-08T10:11:38.834Z,10.63
2019-03-08T10:12:38.960Z,10.76
2019-03-08T10:13:39.048Z,10.62
2019-03-08T10:14:39.143Z,10.77
2019-03-08T10:15:39.243Z,10.74
2019-03-08T10:16:39.321Z,10.74
2019-03-08T10:17:39.420Z,10.81
2019-03-08T10:18:40.195Z,10.89
2019-03-08T10:19:39.604Z,10.78
2019-03-08T10:20:39.694Z,10.81
2019-03-08T10:21:39.786Z,10.88
2019-03-08T10:22:39.900Z,10.83
2019-03-08T10:23:39.993Z,10.80
2019-03-08T10:24:40.086Z,10.92
2019-03-08T10:25:40.178Z,10.96
2019-03-08T10:26:40.273Z,10.91
2019-03-08T10:27:40.363Z,10.66
2019-03-08T10:28:40.455Z,10.76
2019-03-08T10:29:40.542Z,10.95
2019-03-08T10:30:40.647Z,11.11
2019-03-08T10:31:40.763Z,11.01
2019-03-08T10:32:40.851Z,11.03
2019-03-08T10:33:46.514Z,11.11
2019-03-08T10:34:40.995Z,11.06
2019-03-08T10:35:41.089Z,10.99
2019-03-08T10:36:41.181Z,11.21
2019-03-08T10:37:41.271Z,11.20
2019-03-08T10:38:41.365Z,11.19
2019-03-08T10:39:41.454Z,11.20
2019-03-08T10:40:41.549Z,11.19
2019-03-08T10:41:41.643Z,11.21
2019-03-08T10:42:41.733Z,11.25
2019-03-08T10:43:41.825Z,11.20
2019-03-08T10:44:41.918Z,11.41
2019-03-08T10:45:42.008Z,11.19
2019-03-08T10:46:42.102Z,11.20
2019-03-08T10:47:42.198Z,11.25
2019-03-08T10:48:42.288Z,11.31
2019-03-08T10:49:42.383Z,11.38
2019-03-08T10:50:42.471Z,11.36
2019-03-08T10:51:42.564Z,11.46
2019-03-08T10:52:42.795Z,11.29
2019-03-08T10:53:42.831Z,11.24
2019-03-08T10:54:42.894Z,10.84
2019-03-08T10:55:42.915Z,10.99
2019-03-08T10:56:43.006Z,11.10
2019-03-08T10:57:43.098Z,11.19
2019-03-08T10:58:43.226Z,11.21
2019-03-08T10:59:43.344Z,11.38
2019-03-08T11:00:43.375Z,11.46
2019-03-08T11:01:43.466Z,11.49
2019-03-08T11:02:43.559Z,11.56
2019-03-08T11:03:43.652Z,11.47
2019-03-08T11:04:43.746Z,11.67
2019-03-08T11:05:43.840Z,11.64
2019-03-08T11:06:43.932Z,11.64
2019-03-08T11:07:44.021Z,11.47
2019-03-08T11:08:44.111Z,11.41
2019-03-08T11:09:44.205Z,11.62
2019-03-08T11:10:44.297Z,11.62
2019-03-08T11:11:44.391Z,11.83
2019-03-08T11:12:44.486Z,11.68
2019-03-08T11:13:44.598Z,11.72
2019-03-08T11:14:44.851Z,11.68
2019-03-08T11:15:46.769Z,11.93
2019-03-08T11:16:44.883Z,12.01
2019-03-08T11:17:50.739Z,12.02
2019-03-08T11:18:45.074Z,12.15
2019-03-08T11:19:45.164Z,12.12
2019-03-08T11:20:46.444Z,11.97
2019-03-08T11:21:45.349Z,12.08
2019-03-08T11:22:45.445Z,11.96
2019-03-08T11:23:45.535Z,11.65
2019-03-08T11:24:45.629Z,11.82
2019-03-08T11:25:45.723Z,11.75
2019-03-08T11:26:45.824Z,11.70
2019-03-08T11:27:45.914Z,11.62
2019-03-08T11:28:46.005Z,11.62
2019-03-08T11:29:46.131Z,11.83
2019-03-08T11:30:53.725Z,11.83
2019-03-08T11:31:46.285Z,11.96
2019-03-08T11:32:46.466Z,12.06
2019-03-08T11:33:46.469Z,12.15
2019-03-08T11:34:52.157Z,12.24
2019-03-08T11:35:46.719Z,12.33
2019-03-08T11:36:46.822Z,12.52
2019-03-08T11:37:46.841Z,12.64
2019-03-08T11:38:46.934Z,12.78
2019-03-08T11:39:47.050Z,12.95
2019-03-08T11:40:47.144Z,12.96
2019-03-08T11:41:47.235Z,13.02
2019-03-08T11:42:47.330Z,12.87
2019-03-08T11:43:47.421Z,12.93
2019-03-08T11:44:47.516Z,12.96
2019-03-08T11:45:47.613Z,12.71
2019-03-08T11:46:47.699Z,12.79
2019-03-08T11:47:47.788Z,12.62
2019-03-08T11:48:47.878Z,12.66
2019-03-08T11:49:47.972Z,12.69
2019-03-08T11:50:48.064Z,12.67
2019-03-08T11:51:48.159Z,12.64
2019-03-08T11:52:48.249Z,12.77
2019-03-08T11:53:55.999Z,12.70
2019-03-08T11:54:48.437Z,12.70
2019-03-08T11:55:48.541Z,12.69
2019-03-08T11:56:55.864Z,12.82
2019-03-08T11:57:48.770Z,12.57
2019-03-08T11:58:48.818Z,12.67
2019-03-08T11:59:48.923Z,12.84
2019-03-08T12:00:49.018Z,12.78
2019-03-08T12:01:49.117Z,12.81
2019-03-08T12:02:49.205Z,12.64
2019-03-08T12:03:49.300Z,12.49
2019-03-08T12:04:49.394Z,12.77
2019-03-08T12:05:49.995Z,12.74
2019-03-08T12:06:49.590Z,12.93
2019-03-08T12:07:49.685Z,13.04
2019-03-08T12:08:49.776Z,12.92
2019-03-08T12:09:49.868Z,12.89
2019-03-08T12:10:49.963Z,12.92
2019-03-08T12:11:50.057Z,13.00
2019-03-08T12:12:50.154Z,13.02
2019-03-08T12:13:50.256Z,13.04
2019-03-08T12:14:50.347Z,13.04
2019-03-08T12:15:50.442Z,12.92
2019-03-08T12:16:50.534Z,12.85
2019-03-08T12:17:50.629Z,12.57
2019-03-08T12:18:50.820Z,12.46
2019-03-08T12:19:50.852Z,12.48
2019-03-08T12:20:50.946Z,12.44
2019-03-08T12:21:51.031Z,12.37
2019-03-08T12:22:51.133Z,12.52
2019-03-08T12:23:51.225Z,12.57
2019-03-08T12:24:51.319Z,12.42
2019-03-08T12:25:51.424Z,12.31
2019-03-08T12:26:51.521Z,12.38
2019-03-08T12:27:51.613Z,12.44
2019-03-08T12:28:51.708Z,12.42
2019-03-08T12:29:51.802Z,12.41
2019-03-08T12:30:51.895Z,12.66
2019-03-08T12:31:51.987Z,12.77
2019-03-08T12:32:52.076Z,12.64
2019-03-08T12:33:52.168Z,12.84
2019-03-08T12:34:52.262Z,12.56
2019-03-08T12:35:52.354Z,12.38
2019-03-08T12:36:52.448Z,12.33
2019-03-08T12:37:52.540Z,12.08
2019-03-08T12:38:52.725Z,11.99
2019-03-08T12:39:52.847Z,12.08
2019-03-08T12:40:52.887Z,12.13
2019-03-08T12:41:52.999Z,12.16
2019-03-08T12:42:53.092Z,12.23
2019-03-08T12:43:53.186Z,12.20
2019-03-08T12:44:53.279Z,12.19
2019-03-08T12:45:53.374Z,12.20
2019-03-08T12:46:53.470Z,12.24
2019-03-08T12:47:53.561Z,12.46
2019-03-08T12:48:53.654Z,12.49
2019-03-08T12:49:53.747Z,12.77
2019-03-08T12:50:53.837Z,12.93
2019-03-08T12:51:53.931Z,13.09
2019-03-08T12:52:54.024Z,13.07
2019-03-08T12:53:54.117Z,13.32
2019-03-08T12:54:54.225Z,13.40
2019-03-08T12:55:54.321Z,13.55
2019-03-08T12:56:54.414Z,13.55
2019-03-08T12:57:54.506Z,13.55
2019-03-08T12:58:54.603Z,13.55
2019-03-08T12:59:54.693Z,13.61
2019-03-08T13:00:54.862Z,13.69
2019-03-08T13:01:54.903Z,13.61
2019-03-08T13:02:54.994Z,13.55
2019-03-08T13:03:55.088Z,13.63
2019-03-08T13:04:55.181Z,13.58
2019-03-08T13:06:04.113Z,13.62
2019-03-08T13:06:55.351Z,13.80
2019-03-08T13:07:55.451Z,13.76
2019-03-08T13:08:55.552Z,13.91
2019-03-08T13:09:55.635Z,13.73
2019-03-08T13:10:55.730Z,13.61
2019-03-08T13:11:55.824Z,13.52